Time;durP1;ratioP1;P1;durP2;ratioP2;P2;SDS_P1;SDS_P2;PMS_P1;PMS_P2;Temp;Humidity;BMP_temperature;BMP_pressure;BME280_temperature;BME280_humidity;BME280_pressure;Samples;Min_cycle;Max_cycle;Signal;HPM_P1;HPM_P2
2023/08/14 04:06:31;;;;;;;2.53;2.33;;;19.10;99.90;;;;;;5103901;23;20489;-62
2023/08/14 04:08:57;;;;;;;3.70;2.37;;;19.00;99.90;;;;;;4976458;28;20515;-62
2023/08/14 04:11:23;;;;;;;2.33;2.13;;;19.00;99.90;;;;;;4976856;28;20240;-61
2023/08/14 04:13:48;;;;;;;2.40;2.20;;;19.00;99.90;;;;;;4976007;28;20450;-62
2023/08/14 04:16:14;;;;;;;2.70;2.20;;;19.00;99.90;;;;;;4976296;28;20191;-62
2023/08/14 04:18:40;;;;;;;2.93;2.70;;;19.00;99.90;;;;;;4976497;28;20216;-62
2023/08/14 04:21:05;;;;;;;2.60;2.40;;;18.90;99.90;;;;;;4975997;28;20183;-62
2023/08/14 04:23:31;;;;;;;2.03;1.90;;;18.90;99.90;;;;;;4975996;28;20231;-63
2023/08/14 04:25:56;;;;;;;2.57;2.37;;;18.90;99.90;;;;;;4976193;28;20212;-62
2023/08/14 04:28:23;;;;;;;3.60;2.73;;;18.80;99.90;;;;;;4976072;28;20661;-61
2023/08/14 04:30:49;;;;;;;2.77;2.13;;;18.90;99.90;;;;;;4976047;28;20296;-62
2023/08/14 04:33:15;;;;;;;5.00;3.70;;;18.90;99.90;;;;;;4974870;28;20423;-62
2023/08/14 04:35:41;;;;;;;3.90;3.50;;;18.80;99.90;;;;;;4974520;28;20444;-62
2023/08/14 04:38:07;;;;;;;4.40;3.87;;;18.80;99.90;;;;;;4975705;28;20759;-62
2023/08/14 04:40:33;;;;;;;3.10;2.90;;;18.90;99.90;;;;;;4975739;28;20180;-62
2023/08/14 04:42:58;;;;;;;3.67;2.30;;;18.90;99.90;;;;;;4975844;28;20398;-62
2023/08/14 04:45:24;;;;;;;2.20;2.00;;;18.90;99.90;;;;;;4975295;28;20195;-62
2023/08/14 04:47:49;;;;;;;2.50;2.30;;;18.80;99.90;;;;;;4975447;28;20315;-62
2023/08/14 04:50:15;;;;;;;3.30;3.00;;;18.90;99.90;;;;;;4975654;28;20200;-62
2023/08/14 04:52:40;;;;;;;1.83;1.73;;;18.90;99.90;;;;;;4975671;28;20183;-62
2023/08/14 04:55:07;;;;;;;2.43;2.23;;;18.90;99.90;;;;;;4975230;28;20758;-62
2023/08/14 04:57:32;;;;;;;2.67;2.47;;;18.90;99.90;;;;;;4975514;28;20176;-61
2023/08/14 04:59:58;;;;;;;3.07;2.80;;;19.00;99.90;;;;;;4975528;28;20883;-62
2023/08/14 05:02:23;;;;;;;2.60;2.40;;;19.00;99.90;;;;;;4975536;28;20231;-62
2023/08/14 05:04:49;;;;;;;3.30;2.73;;;19.10;99.90;;;;;;4974853;28;20207;-62
2023/08/14 05:07:15;;;;;;;2.83;2.63;;;19.10;99.90;;;;;;4975100;28;20199;-62
2023/08/14 05:09:40;;;;;;;2.63;2.40;;;19.10;99.90;;;;;;4975144;28;20180;-62
2023/08/14 05:12:06;;;;;;;4.23;3.83;;;19.20;99.90;;;;;;4975662;28;20172;-62
2023/08/14 05:14:32;;;;;;;2.87;2.60;;;19.20;99.90;;;;;;4974797;28;20246;-62
2023/08/14 05:16:57;;;;;;;3.40;3.10;;;19.30;99.90;;;;;;4975128;28;20482;-62
2023/08/14 05:19:23;;;;;;;3.17;2.97;;;19.30;99.90;;;;;;4975183;28;20177;-62
2023/08/14 05:21:49;;;;;;;5.80;3.20;;;19.30;99.90;;;;;;4975220;28;20598;-62
2023/08/14 05:24:15;;;;;;;3.03;2.73;;;19.30;99.90;;;;;;4974624;28;20554;-62
2023/08/14 05:26:41;;;;;;;3.43;2.30;;;19.40;99.90;;;;;;4974876;28;20187;-62
2023/08/14 05:29:06;;;;;;;2.80;2.60;;;19.40;99.90;;;;;;4975087;28;20394;-62
2023/08/14 05:31:32;;;;;;;4.00;3.17;;;19.40;99.90;;;;;;4975027;28;20227;-62
2023/08/14 05:33:57;;;;;;;3.77;3.47;;;19.50;99.90;;;;;;4974695;28;20527;-62
2023/08/14 05:36:23;;;;;;;2.37;2.20;;;19.70;99.90;;;;;;4974979;28;20225;-62
2023/08/14 05:38:49;;;;;;;2.67;2.47;;;19.90;99.90;;;;;;4974788;28;20631;-62
2023/08/14 05:41:15;;;;;;;2.23;2.03;;;20.00;99.90;;;;;;4974957;28;20173;-62
2023/08/14 05:43:41;;;;;;;2.43;2.23;;;20.10;99.90;;;;;;4974604;28;20204;-62
2023/08/14 05:46:06;;;;;;;2.77;2.27;;;20.20;99.90;;;;;;4974490;28;20410;-62
2023/08/14 05:48:32;;;;;;;2.40;2.27;;;20.30;99.90;;;;;;4974831;28;20187;-62
2023/08/14 05:50:57;;;;;;;2.27;2.07;;;20.40;99.90;;;;;;4974746;28;20196;-61
2023/08/14 05:53:23;;;;;;;2.40;2.30;;;20.50;99.90;;;;;;4974401;28;20169;-62
2023/08/14 05:55:48;;;;;;;2.10;1.90;;;20.50;99.90;;;;;;4974691;28;20535;-62
2023/08/14 05:58:14;;;;;;;1.60;1.50;;;20.60;99.90;;;;;;4974676;28;20173;-62
2023/08/14 06:00:40;;;;;;;3.47;2.60;;;20.50;99.90;;;;;;4974628;28;20184;-61
2023/08/14 06:03:07;;;;;;;2.00;1.90;;;20.60;99.90;;;;;;4974699;28;20175;-62
2023/08/14 06:05:33;;;;;;;2.57;2.30;;;20.60;99.90;;;;;;4973990;28;20427;-61
2023/08/14 06:07:58;;;;;;;4.67;2.23;;;20.60;99.90;;;;;;4974726;28;20474;-62
2023/08/14 06:10:24;;;;;;;2.77;2.53;;;20.60;99.90;;;;;;4974427;28;20744;-62
2023/08/14 06:12:50;;;;;;;1.87;1.77;;;20.60;99.90;;;;;;4974603;28;20173;-62
2023/08/14 06:15:21;;;;;;;2.63;2.43;;;20.60;99.90;;;;;;4974154;28;20245;-62
2023/08/14 06:17:48;;;;;;;2.70;2.50;;;20.60;99.90;;;;;;4974690;28;20480;-62
2023/08/14 06:20:14;;;;;;;2.33;2.13;;;20.60;99.90;;;;;;4974549;28;20429;-61
2023/08/14 06:22:41;;;;;;;2.50;2.30;;;20.60;99.90;;;;;;4974363;28;20397;-61
2023/08/14 06:25:07;;;;;;;3.40;3.13;;;20.70;99.90;;;;;;4974092;28;20433;-62
2023/08/14 06:27:33;;;;;;;2.40;2.20;;;20.80;99.90;;;;;;4974321;28;20419;-61
2023/08/14 06:29:59;;;;;;;2.57;2.37;;;20.80;99.90;;;;;;4974353;28;20964;-61
2023/08/14 06:32:25;;;;;;;1.93;1.83;;;20.80;99.90;;;;;;4974371;28;20919;-61
2023/08/14 06:34:50;;;;;;;2.97;2.67;;;20.90;99.90;;;;;;4974131;28;20333;-61
2023/08/14 06:37:16;;;;;;;2.10;2.00;;;20.90;99.90;;;;;;4974263;28;20173;-61
2023/08/14 06:39:42;;;;;;;2.87;2.60;;;21.00;99.90;;;;;;4974250;28;20180;-61
2023/08/14 06:42:08;;;;;;;2.53;2.17;;;21.10;99.90;;;;;;4974256;28;20267;-62
2023/08/14 06:44:34;;;;;;;2.13;1.90;;;21.10;99.90;;;;;;4973860;28;20524;-61
2023/08/14 06:47:00;;;;;;;2.13;2.03;;;21.10;99.90;;;;;;4974214;28;20888;-61
2023/08/14 06:49:27;;;;;;;2.17;2.00;;;21.10;99.90;;;;;;4974055;28;20417;-62
2023/08/14 06:51:53;;;;;;;2.63;2.43;;;21.20;99.90;;;;;;4974063;28;20461;-61
2023/08/14 06:54:18;;;;;;;2.23;2.13;;;21.20;99.90;;;;;;4973733;28;20386;-61
2023/08/14 06:56:44;;;;;;;2.10;2.00;;;21.30;99.90;;;;;;4975154;28;20422;-62
2023/08/14 06:59:10;;;;;;;2.57;2.40;;;21.40;99.90;;;;;;4977963;28;20203;-62
2023/08/14 07:01:35;;;;;;;2.57;2.37;;;21.50;99.90;;;;;;4977713;28;20170;-62
2023/08/14 07:04:02;;;;;;;2.60;2.43;;;21.60;99.90;;;;;;4977823;28;20235;-61
2023/08/14 07:06:27;;;;;;;2.70;2.10;;;21.60;99.90;;;;;;4977361;28;20308;-62
2023/08/14 07:08:53;;;;;;;2.33;2.13;;;21.70;99.90;;;;;;4977458;28;20519;-61
2023/08/14 07:11:18;;;;;;;2.30;2.20;;;21.80;99.90;;;;;;4977402;28;20208;-62
2023/08/14 07:13:44;;;;;;;2.93;2.73;;;21.90;99.90;;;;;;4977269;28;20528;-61
2023/08/14 07:16:10;;;;;;;2.53;2.33;;;22.00;99.90;;;;;;4977482;28;20550;-62
2023/08/14 07:18:36;;;;;;;2.73;2.53;;;22.10;99.90;;;;;;4977380;28;20204;-63
2023/08/14 07:21:01;;;;;;;2.20;2.00;;;22.30;99.90;;;;;;4977259;28;20182;-61
2023/08/14 07:23:27;;;;;;;2.47;2.27;;;22.40;99.90;;;;;;4977067;28;20172;-63
2023/08/14 07:25:57;;;;;;;2.90;2.70;;;22.50;99.90;;;;;;4977279;28;20196;-62
2023/08/14 07:28:23;;;;;;;2.93;2.73;;;22.70;99.90;;;;;;4977253;28;20183;-62
2023/08/14 07:30:48;;;;;;;1.60;1.50;;;22.80;99.90;;;;;;4977152;28;20422;-60
2023/08/14 07:33:15;;;;;;;3.63;3.10;;;22.90;99.90;;;;;;4977139;28;20235;-61
2023/08/14 07:35:41;;;;;;;2.47;2.27;;;23.00;99.90;;;;;;4959349;28;20196;-61
2023/08/14 07:38:07;;;;;;;2.50;2.30;;;23.20;99.90;;;;;;4977218;28;20422;-62
2023/08/14 07:40:33;;;;;;;2.53;2.33;;;23.50;99.90;;;;;;4977118;28;20455;-60
2023/08/14 07:42:58;;;;;;;2.60;2.40;;;23.80;99.90;;;;;;4977040;28;20639;-62
2023/08/14 07:45:24;;;;;;;2.40;2.20;;;24.30;99.90;;;;;;4976458;28;20194;-62
2023/08/14 07:47:49;;;;;;;1.97;1.87;;;24.90;99.90;;;;;;4977283;28;20211;-62
2023/08/14 07:50:15;;;;;;;2.57;2.37;;;25.90;99.90;;;;;;4976761;28;20199;-62
2023/08/14 07:52:41;;;;;;;2.50;2.30;;;27.10;99.90;;;;;;4977089;28;20557;-62
2023/08/14 07:55:06;;;;;;;2.20;2.10;;;28.30;99.90;;;;;;4976418;28;20234;-63
2023/08/14 07:57:32;;;;;;;2.37;2.17;;;29.50;99.90;;;;;;4976897;28;20180;-62
2023/08/14 07:59:58;;;;;;;2.43;2.23;;;30.60;99.90;;;;;;4976730;28;20183;-63
2023/08/14 08:02:23;;;;;;;2.60;2.03;;;31.60;99.90;;;;;;4976525;28;20196;-63
2023/08/14 08:04:49;;;;;;;3.03;2.83;;;32.40;99.90;;;;;;4976395;28;20192;-63
2023/08/14 08:07:15;;;;;;;2.70;2.50;;;33.30;99.90;;;;;;4976333;28;20192;-63
2023/08/14 08:09:40;;;;;;;2.70;2.60;;;33.80;99.90;;;;;;4976583;28;20188;-63
2023/08/14 08:12:06;;;;;;;3.07;2.87;;;34.30;99.90;;;;;;4976425;28;20558;-63
2023/08/14 08:14:34;;;;;;;3.20;2.90;;;34.90;99.90;;;;;;4976073;28;20199;-62
2023/08/14 08:16:59;;;;;;;2.50;2.30;;;35.60;97.80;;;;;;4976291;28;20466;-63
2023/08/14 08:19:25;;;;;;;2.80;2.60;;;36.00;97.50;;;;;;4958966;28;20415;-62
2023/08/14 08:21:51;;;;;;;1.60;1.60;;;36.50;96.40;;;;;;4976270;28;20177;-62
2023/08/14 08:24:17;;;;;;;2.00;1.90;;;36.90;95.40;;;;;;4975930;28;20188;-62
2023/08/14 08:26:42;;;;;;;3.60;2.30;;;37.50;93.50;;;;;;4976314;28;20531;-62
2023/08/14 08:29:08;;;;;;;2.33;2.23;;;38.10;93.20;;;;;;4975960;28;20255;-62
2023/08/14 08:31:33;;;;;;;2.43;2.30;;;38.20;90.40;;;;;;4976067;28;20207;-62
2023/08/14 08:33:59;;;;;;;2.10;2.00;;;38.30;92.00;;;;;;4975856;28;20558;-62
2023/08/14 08:36:24;;;;;;;2.40;2.30;;;38.20;90.10;;;;;;4975907;28;20554;-62
2023/08/14 08:38:50;;;;;;;2.03;1.93;;;37.90;91.20;;;;;;4976147;28;20176;-63
2023/08/14 08:41:32;;;;;;;2.00;1.90;;;38.10;91.00;;;;;;4975987;28;20195;-62
2023/08/14 08:44:09;;;;;;;2.03;1.90;;;38.30;91.70;;;;;;4975723;28;20180;-62
2023/08/14 08:46:47;;;;;;;2.40;2.30;;;38.40;88.30;;;;;;4975784;28;20404;-62
2023/08/14 08:49:14;;;;;;;2.27;2.17;;;38.20;90.20;;;;;;4975923;28;20400;-62
2023/08/14 08:51:41;;;;;;;2.93;2.33;;;38.30;91.20;;;;;;4975967;28;20542;-62
2023/08/14 08:54:07;;;;;;;1.97;1.87;;;38.60;85.90;;;;;;4975481;28;20452;-62
2023/08/14 08:56:34;;;;;;;3.93;2.67;;;38.60;90.70;;;;;;4975686;28;20886;-62
2023/08/14 08:58:59;;;;;;;2.40;2.30;;;38.70;89.30;;;;;;4975732;28;20176;-62
2023/08/14 09:01:25;;;;;;;2.20;2.10;;;38.80;88.10;;;;;;4975560;28;20490;-63
2023/08/14 09:03:51;;;;;;;2.00;1.90;;;38.80;85.60;;;;;;4975064;28;20255;-62
2023/08/14 09:06:17;;;;;;;2.20;2.10;;;38.60;86.90;;;;;;4975389;28;20224;-62
2023/08/14 09:08:43;;;;;;;2.00;1.90;;;38.80;89.10;;;;;;4975358;28;20184;-61
2023/08/14 09:11:08;;;;;;;2.23;2.10;;;38.90;84.80;;;;;;4975160;28;20278;-64
2023/08/14 09:13:34;;;;;;;2.27;2.17;;;39.10;88.00;;;;;;4974834;28;20180;-62
2023/08/14 09:16:00;;;;;;;2.33;2.23;;;39.30;88.90;;;;;;4975232;28;20235;-62
2023/08/14 09:18:26;;;;;;;2.43;2.33;;;39.50;85.50;;;;;;4975272;28;20177;-63
2023/08/14 09:20:51;;;;;;;2.30;2.20;;;39.50;85.10;;;;;;4974635;28;20491;-63
2023/08/14 09:23:17;;;;;;;2.33;2.23;;;39.20;85.00;;;;;;4957832;28;20658;-62
2023/08/14 09:25:46;;;;;;;2.50;2.40;;;39.10;88.10;;;;;;4974673;28;20203;-63
2023/08/14 09:28:12;;;;;;;2.87;2.77;;;39.40;88.90;;;;;;4974782;28;20729;-63
2023/08/14 09:30:39;;;;;;;2.43;2.33;;;39.90;88.00;;;;;;4974999;28;20534;-62
2023/08/14 09:33:09;;;;;;;2.80;2.70;;;40.40;86.40;;;;;;4975062;28;20474;-62
2023/08/14 09:35:36;;;;;;;2.47;2.37;;;40.60;83.30;;;;;;4974736;28;20431;-63
2023/08/14 09:38:01;;;;;;;2.10;2.00;;;40.30;80.10;;;;;;4957440;28;20423;-63
2023/08/14 09:40:27;;;;;;;2.53;2.43;;;40.40;83.60;;;;;;4957480;28;20451;-62
2023/08/14 09:42:55;;;;;;;2.73;2.63;;;41.00;81.90;;;;;;4975028;28;20171;-63
2023/08/14 09:45:24;;;;;;;2.73;2.63;;;41.50;79.10;;;;;;4974519;28;20199;-63
2023/08/14 09:47:51;;;;;;;2.57;2.47;;;41.80;78.80;;;;;;4974730;28;20411;-62
2023/08/14 09:50:19;;;;;;;2.50;2.40;;;41.80;78.40;;;;;;4974795;28;20486;-63
2023/08/14 09:52:45;;;;;;;2.40;2.30;;;41.50;76.00;;;;;;4974873;28;20419;-62
2023/08/14 09:55:14;;;;;;;2.40;2.20;;;41.20;77.40;;;;;;4974486;28;20441;-63
2023/08/14 09:57:40;;;;;;;2.67;2.57;;;41.00;79.00;;;;;;4974973;28;20180;-62
2023/08/14 10:00:07;;;;;;;2.60;2.40;;;40.70;79.10;;;;;;4974616;28;21105;-63
2023/08/14 10:02:33;;;;;;;2.63;2.53;;;40.50;80.10;;;;;;4974786;28;20419;-63
2023/08/14 10:05:01;;;;;;;2.77;2.57;;;40.40;82.70;;;;;;4974081;28;20419;-62
2023/08/14 10:07:27;;;;;;;3.13;2.93;;;40.80;81.20;;;;;;4974813;28;20499;-63
2023/08/14 10:09:57;;;;;;;2.77;2.67;;;41.10;79.00;;;;;;4974585;28;20922;-63
2023/08/14 10:12:28;;;;;;;3.03;2.80;;;41.20;79.00;;;;;;4974570;28;20450;-63
2023/08/14 10:15:10;;;;;;;2.77;2.67;;;41.40;78.20;;;;;;4974198;28;20511;-63
2023/08/14 10:18:01;;;;;;;3.10;2.90;;;41.10;76.20;;;;;;4974632;28;20478;-63
2023/08/14 10:20:32;;;;;;;3.70;2.83;;;41.30;77.30;;;;;;4973971;28;20972;-62
2023/08/14 10:22:58;;;;;;;4.10;2.50;;;41.60;76.80;;;;;;4975089;28;20866;-63
2023/08/14 10:25:24;;;;;;;2.67;2.57;;;41.50;78.00;;;;;;4974019;28;20455;-63
2023/08/14 10:27:51;;;;;;;2.40;2.30;;;41.10;77.70;;;;;;4974433;28;20208;-63
2023/08/14 10:30:19;;;;;;;2.40;2.30;;;40.20;78.00;;;;;;4974341;28;20913;-62
2023/08/14 10:32:46;;;;;;;2.33;2.23;;;39.40;77.00;;;;;;4976948;28;20478;-63
2023/08/14 10:35:12;;;;;;;2.53;2.43;;;39.00;77.90;;;;;;4977781;28;20443;-62
2023/08/14 10:37:49;;;;;;;2.43;2.33;;;38.60;83.10;;;;;;4978270;28;20399;-62
2023/08/14 10:40:14;;;;;;;2.77;2.60;;;38.20;79.80;;;;;;4978080;28;20291;-63
2023/08/14 10:42:50;;;;;;;2.80;2.60;;;37.80;82.00;;;;;;4978054;28;20831;-63
2023/08/14 10:45:20;;;;;;;3.00;2.70;;;37.10;84.50;;;;;;4977670;28;20234;-63
2023/08/14 10:47:46;;;;;;;3.03;2.60;;;36.80;86.80;;;;;;4978057;28;20435;-63
2023/08/14 10:50:27;;;;;;;2.90;2.70;;;37.10;85.00;;;;;;4977859;28;20412;-63
2023/08/14 10:52:55;;;;;;;2.60;2.40;;;37.40;82.00;;;;;;4977894;28;20207;-62
2023/08/14 10:55:25;;;;;;;2.37;2.13;;;37.90;84.50;;;;;;4977366;28;20459;-61
2023/08/14 10:57:53;;;;;;;2.50;2.30;;;38.30;85.00;;;;;;4977660;28;20416;-63
2023/08/14 11:00:21;;;;;;;2.57;2.47;;;38.60;81.70;;;;;;4977901;28;20425;-63
2023/08/14 11:03:07;;;;;;;2.57;2.47;;;38.90;81.10;;;;;;4977922;28;20420;-62
2023/08/14 11:05:37;;;;;;;2.63;2.07;;;39.00;81.70;;;;;;4977138;28;20853;-62
2023/08/14 11:08:04;;;;;;;2.80;2.60;;;39.00;79.60;;;;;;4977590;28;20407;-63
2023/08/14 11:10:31;;;;;;;2.40;2.30;;;39.00;79.00;;;;;;4977651;28;20419;-61
2023/08/14 11:12:57;;;;;;;2.43;2.23;;;38.60;79.20;;;;;;4977833;28;20443;-63
2023/08/14 11:15:23;;;;;;;2.50;2.37;;;38.10;77.70;;;;;;4978157;28;20862;-63
2023/08/14 11:17:49;;;;;;;2.53;2.40;;;37.60;78.90;;;;;;4978068;28;20172;-63
2023/08/14 11:20:15;;;;;;;2.73;2.53;;;36.90;81.90;;;;;;4977761;28;20554;-63
2023/08/14 11:22:45;;;;;;;2.83;2.63;;;36.40;82.70;;;;;;4977815;28;20172;-63
2023/08/14 11:25:13;;;;;;;3.13;2.93;;;35.90;85.40;;;;;;4977023;28;20201;-63
2023/08/14 11:27:39;;;;;;;3.23;2.93;;;35.40;87.90;;;;;;4977419;28;20780;-63
2023/08/14 11:30:05;;;;;;;2.37;2.27;;;35.10;90.10;;;;;;4977475;28;20448;-62
2023/08/14 11:32:31;;;;;;;2.53;2.33;;;34.80;90.10;;;;;;4977578;28;20239;-61
2023/08/14 11:34:57;;;;;;;2.93;2.73;;;34.70;90.60;;;;;;4976823;28;20482;-63
2023/08/14 11:37:22;;;;;;;3.70;3.10;;;34.60;91.00;;;;;;4977190;28;20173;-63
2023/08/14 11:39:49;;;;;;;2.70;2.50;;;34.60;90.00;;;;;;4977443;28;20750;-62
2023/08/14 11:42:15;;;;;;;2.67;2.40;;;34.50;90.00;;;;;;4976381;28;20212;-62
2023/08/14 11:44:40;;;;;;;2.10;2.00;;;34.50;90.40;;;;;;4976578;28;20443;-62
2023/08/14 11:47:06;;;;;;;2.67;2.57;;;34.50;90.50;;;;;;4976907;28;20439;-62
2023/08/14 11:49:36;;;;;;;3.13;2.93;;;34.40;90.50;;;;;;4976731;28;20177;-62
2023/08/14 11:52:03;;;;;;;3.17;2.97;;;34.30;89.60;;;;;;4959946;28;20825;-62
2023/08/14 11:54:30;;;;;;;2.50;2.40;;;34.00;89.50;;;;;;4976387;28;20458;-63
2023/08/14 11:56:56;;;;;;;2.60;2.40;;;33.90;90.10;;;;;;4976808;28;20463;-62
2023/08/14 11:59:21;;;;;;;2.90;2.70;;;34.00;90.60;;;;;;4976719;28;20802;-63
2023/08/14 12:01:47;;;;;;;2.83;2.63;;;34.00;90.90;;;;;;4976483;28;20230;-63
2023/08/14 12:04:13;;;;;;;2.80;2.60;;;33.80;90.90;;;;;;4976374;28;20176;-61
2023/08/14 12:06:39;;;;;;;2.93;2.73;;;33.60;91.30;;;;;;4976442;28;20192;-62
2023/08/14 12:09:09;;;;;;;3.50;3.20;;;33.50;91.30;;;;;;4976495;28;20559;-62
2023/08/14 12:11:37;;;;;;;3.30;3.10;;;33.30;91.80;;;;;;4976440;28;20171;-62
2023/08/14 12:14:05;;;;;;;2.90;2.70;;;33.00;92.30;;;;;;4975991;28;20420;-63
2023/08/14 12:16:30;;;;;;;3.33;3.10;;;32.80;92.00;;;;;;4976137;28;20431;-62
2023/08/14 12:18:56;;;;;;;3.00;2.80;;;32.60;92.60;;;;;;4976310;28;20382;-61
2023/08/14 12:21:29;;;;;;;3.10;2.90;;;32.50;93.20;;;;;;4976272;28;20204;-62
2023/08/14 12:23:55;;;;;;;2.37;2.17;;;32.40;93.60;;;;;;4975777;28;20172;-62
2023/08/14 12:26:21;;;;;;;3.30;3.03;;;32.40;93.90;;;;;;4976135;28;20761;-62
2023/08/14 12:28:47;;;;;;;3.60;3.30;;;32.40;94.40;;;;;;4975910;28;20411;-62
2023/08/14 12:31:14;;;;;;;3.37;3.00;;;32.40;94.80;;;;;;4976164;28;20419;-62
2023/08/14 12:33:43;;;;;;;3.13;2.83;;;32.20;94.00;;;;;;4958539;28;20449;-62
2023/08/14 12:36:12;;;;;;;2.97;2.77;;;32.20;93.70;;;;;;4975882;28;20490;-62
2023/08/14 12:38:38;;;;;;;2.43;2.23;;;32.30;93.90;;;;;;4975961;28;20471;-62
2023/08/14 12:41:04;;;;;;;3.10;2.90;;;32.30;93.70;;;;;;4975726;28;20425;-63
2023/08/14 12:43:30;;;;;;;2.80;2.60;;;32.20;93.90;;;;;;4975674;28;20516;-63
2023/08/14 12:45:56;;;;;;;3.00;2.80;;;32.20;94.30;;;;;;4975498;28;20957;-60
2023/08/14 12:48:22;;;;;;;2.47;2.33;;;32.10;94.50;;;;;;4975810;28;20416;-62
2023/08/14 12:50:47;;;;;;;3.07;2.70;;;32.00;94.80;;;;;;4975549;28;20180;-62
2023/08/14 12:53:16;;;;;;;2.17;2.00;;;32.00;95.60;;;;;;4975462;28;20264;-62
2023/08/14 12:55:47;;;;;;;2.37;2.17;;;31.60;94.50;;;;;;4974268;28;20280;-61
2023/08/14 12:58:13;;;;;;;2.67;2.27;;;31.10;95.00;;;;;;4975568;28;20371;-62
2023/08/14 13:00:39;;;;;;;3.13;2.80;;;30.50;95.20;;;;;;4975483;28;20430;-63
2023/08/14 13:03:05;;;;;;;2.53;2.33;;;30.00;95.10;;;;;;4958009;28;20176;-63
2023/08/14 13:05:31;;;;;;;3.13;2.93;;;29.40;96.50;;;;;;4974998;28;20426;-62
2023/08/14 13:07:57;;;;;;;2.60;2.40;;;29.20;97.50;;;;;;4975278;28;20453;-63
2023/08/14 13:10:22;;;;;;;3.83;3.03;;;29.00;97.80;;;;;;4975283;28;20177;-61
2023/08/14 13:12:50;;;;;;;2.53;2.33;;;29.00;98.30;;;;;;4975418;28;20187;-61
2023/08/14 13:15:16;;;;;;;2.47;2.33;;;29.00;98.60;;;;;;4974976;28;20204;-61
2023/08/14 13:17:41;;;;;;;2.33;2.13;;;29.00;98.90;;;;;;4975110;28;20470;-61
2023/08/14 13:20:09;;;;;;;2.50;2.30;;;29.00;99.30;;;;;;4975023;28;20451;-62
2023/08/14 13:22:35;;;;;;;2.37;2.27;;;29.00;99.20;;;;;;4957949;28;20194;-63
2023/08/14 13:25:01;;;;;;;2.60;2.40;;;29.00;99.30;;;;;;4974556;28;20440;-63
2023/08/14 13:27:26;;;;;;;3.80;3.07;;;29.00;99.40;;;;;;4975112;28;20188;-62
2023/08/14 13:29:52;;;;;;;2.97;2.60;;;29.20;99.40;;;;;;4975021;28;20184;-63
2023/08/14 13:32:17;;;;;;;2.93;2.73;;;29.20;99.30;;;;;;4975138;28;20227;-63
2023/08/14 13:34:43;;;;;;;2.53;2.33;;;29.30;99.10;;;;;;4974553;28;20196;-62
2023/08/14 13:37:09;;;;;;;3.00;2.80;;;29.30;98.70;;;;;;4974909;28;20581;-62
2023/08/14 13:39:34;;;;;;;5.27;2.40;;;29.40;99.60;;;;;;4974884;28;20188;-62
2023/08/14 13:42:00;;;;;;;2.80;2.50;;;29.50;98.00;;;;;;4974688;28;20214;-63
2023/08/14 13:44:25;;;;;;;2.90;2.60;;;29.70;97.80;;;;;;4974731;28;20177;-63
2023/08/14 13:46:51;;;;;;;2.77;2.57;;;29.90;96.70;;;;;;4974538;28;20189;-62
2023/08/14 13:49:16;;;;;;;2.57;2.40;;;30.10;96.60;;;;;;4975027;28;20180;-62
2023/08/14 13:51:44;;;;;;;2.80;2.60;;;30.10;96.80;;;;;;4974851;28;20191;-63
2023/08/14 13:54:10;;;;;;;2.30;2.10;;;30.20;96.80;;;;;;4974447;28;20323;-61
2023/08/14 13:56:35;;;;;;;2.60;2.40;;;30.10;97.30;;;;;;4974594;28;20805;-63
2023/08/14 13:59:02;;;;;;;3.47;2.90;;;30.20;97.80;;;;;;4974691;28;20184;-62
2023/08/14 14:01:28;;;;;;;2.77;2.57;;;30.20;97.50;;;;;;4974653;28;20243;-62
2023/08/14 14:03:53;;;;;;;2.63;2.43;;;30.40;97.70;;;;;;4974387;28;20422;-63
2023/08/14 14:06:19;;;;;;;2.90;2.60;;;30.50;97.90;;;;;;4976382;28;20611;-62
2023/08/14 14:08:46;;;;;;;2.60;2.40;;;30.50;97.50;;;;;;4978728;28;20259;-61
2023/08/14 14:11:12;;;;;;;3.50;2.50;;;30.60;97.60;;;;;;4961270;28;20184;-62
2023/08/14 14:13:38;;;;;;;2.23;2.10;;;30.60;97.80;;;;;;4978359;28;20398;-63
2023/08/14 14:16:03;;;;;;;2.57;2.37;;;30.60;97.50;;;;;;4978623;28;20288;-62
2023/08/14 14:18:29;;;;;;;2.33;2.13;;;30.60;97.20;;;;;;4978655;28;20187;-63
2023/08/14 14:20:55;;;;;;;2.80;2.60;;;30.60;97.80;;;;;;4978484;28;20685;-61
2023/08/14 14:23:20;;;;;;;2.63;2.53;;;30.50;98.60;;;;;;4978090;28;20220;-65
2023/08/14 14:25:46;;;;;;;2.67;2.47;;;30.50;99.00;;;;;;4978297;28;20193;-63
2023/08/14 14:28:11;;;;;;;3.40;3.10;;;30.40;98.30;;;;;;4978182;28;20230;-62
2023/08/14 14:30:37;;;;;;;2.73;2.53;;;30.50;98.90;;;;;;4978358;28;20176;-63
2023/08/14 14:33:03;;;;;;;3.03;2.83;;;30.60;98.60;;;;;;4978341;28;20176;-62
2023/08/14 14:35:28;;;;;;;2.83;2.63;;;30.60;99.40;;;;;;4978058;28;20559;-62
2023/08/14 14:37:54;;;;;;;2.47;2.27;;;30.80;99.20;;;;;;4978289;28;20626;-62
2023/08/14 14:40:20;;;;;;;3.37;2.17;;;30.90;99.00;;;;;;4977921;28;20332;-62
2023/08/14 14:42:45;;;;;;;2.90;2.70;;;30.90;98.20;;;;;;4978206;28;20266;-62
2023/08/14 14:45:11;;;;;;;2.90;2.70;;;31.00;98.20;;;;;;4977913;28;20542;-62
2023/08/14 14:47:37;;;;;;;2.47;2.33;;;31.10;98.30;;;;;;4978033;28;20173;-63
2023/08/14 14:50:02;;;;;;;2.87;2.67;;;31.00;98.70;;;;;;4978005;28;20177;-62
2023/08/14 14:52:28;;;;;;;2.23;2.03;;;31.00;98.40;;;;;;4977873;28;20203;-62
2023/08/14 14:54:54;;;;;;;2.40;2.20;;;30.90;97.20;;;;;;4977467;28;20786;-62
2023/08/14 14:57:19;;;;;;;2.77;2.57;;;30.80;97.00;;;;;;4977659;28;20183;-61
2023/08/14 14:59:46;;;;;;;2.87;2.47;;;30.70;96.70;;;;;;4960456;28;20582;-62
2023/08/14 15:02:12;;;;;;;2.30;2.20;;;30.60;96.90;;;;;;4977614;28;20208;-66
2023/08/14 15:04:38;;;;;;;2.80;2.50;;;30.50;96.70;;;;;;4977304;28;20416;-63
2023/08/14 15:07:05;;;;;;;2.53;2.37;;;30.50;96.30;;;;;;4977144;28;20655;-61
2023/08/14 15:09:30;;;;;;;3.43;3.13;;;30.50;96.40;;;;;;4977683;28;20177;-62
2023/08/14 15:11:56;;;;;;;2.80;2.60;;;30.50;96.90;;;;;;4977326;28;20465;-62
2023/08/14 15:14:21;;;;;;;2.77;2.53;;;30.50;97.30;;;;;;4976927;28;20180;-62
2023/08/14 15:16:47;;;;;;;2.80;2.60;;;30.50;97.80;;;;;;4976909;28;20218;-61
2023/08/14 15:19:14;;;;;;;2.20;2.10;;;30.60;97.80;;;;;;4976941;28;20176;-62
2023/08/14 15:21:41;;;;;;;3.00;2.80;;;30.70;97.90;;;;;;4977112;28;20242;-63
2023/08/14 15:24:08;;;;;;;2.70;2.50;;;30.60;97.40;;;;;;4976988;28;20397;-62
2023/08/14 15:26:33;;;;;;;2.70;2.50;;;30.60;97.40;;;;;;4959808;28;20892;-62
2023/08/14 15:28:59;;;;;;;2.97;2.67;;;30.60;96.90;;;;;;4977123;28;20484;-62
2023/08/14 15:31:24;;;;;;;2.30;2.20;;;30.60;97.00;;;;;;4977090;28;20578;-62
2023/08/14 15:33:50;;;;;;;2.60;2.40;;;30.50;97.10;;;;;;4976716;28;20176;-61
2023/08/14 15:36:16;;;;;;;2.70;2.50;;;30.30;97.40;;;;;;4976703;28;20208;-62
2023/08/14 15:38:41;;;;;;;2.00;1.90;;;30.20;97.50;;;;;;4976810;28;20176;-62
2023/08/14 15:41:09;;;;;;;2.90;2.70;;;30.10;97.50;;;;;;4976809;28;20212;-63
2023/08/14 15:43:34;;;;;;;2.80;2.50;;;29.90;97.60;;;;;;4959736;28;20176;-61
2023/08/14 15:46:01;;;;;;;3.00;2.80;;;29.80;97.80;;;;;;4976969;28;20423;-61
2023/08/14 15:48:27;;;;;;;2.10;1.90;;;29.70;97.90;;;;;;4976870;28;20657;-62
2023/08/14 15:50:52;;;;;;;2.40;2.30;;;29.70;97.90;;;;;;4976735;28;20475;-62
2023/08/14 15:53:18;;;;;;;2.70;2.50;;;29.70;97.90;;;;;;4976708;28;20173;-61
2023/08/14 15:55:43;;;;;;;3.73;3.03;;;29.60;98.00;;;;;;4976302;28;20239;-62
2023/08/14 15:58:09;;;;;;;2.60;2.40;;;29.60;98.10;;;;;;4976712;28;20188;-62
2023/08/14 16:00:35;;;;;;;2.40;2.30;;;29.50;98.40;;;;;;4976449;28;20223;-62
2023/08/14 16:03:00;;;;;;;2.63;2.43;;;29.50;98.90;;;;;;4976620;28;20207;-62
2023/08/14 16:05:26;;;;;;;2.77;2.57;;;29.50;98.70;;;;;;4975803;28;20570;-63
2023/08/14 16:07:52;;;;;;;2.87;2.67;;;29.40;98.50;;;;;;4976481;28;20653;-62
2023/08/14 16:10:17;;;;;;;2.57;2.37;;;29.40;98.50;;;;;;4976653;28;20523;-62
2023/08/14 16:12:43;;;;;;;3.97;2.67;;;29.40;98.60;;;;;;4976338;28;20187;-62
2023/08/14 16:15:09;;;;;;;4.53;2.80;;;29.40;98.70;;;;;;4958729;28;20286;-62
2023/08/14 16:17:34;;;;;;;2.57;2.33;;;29.30;98.70;;;;;;4976414;28;20271;-62
2023/08/14 16:20:00;;;;;;;4.33;2.90;;;29.30;98.80;;;;;;4958930;28;20470;-63
2023/08/14 16:22:26;;;;;;;3.17;2.97;;;29.30;98.90;;;;;;4976292;28;20266;-62
2023/08/14 16:24:51;;;;;;;3.20;3.00;;;29.30;98.90;;;;;;4975683;28;20398;-62
2023/08/14 16:27:17;;;;;;;2.90;2.70;;;29.30;98.90;;;;;;4976200;28;20169;-62
2023/08/14 16:29:43;;;;;;;2.47;2.23;;;29.30;98.40;;;;;;4976248;28;20207;-62
2023/08/14 16:32:08;;;;;;;3.57;3.30;;;29.20;98.40;;;;;;4958670;28;20180;-62
2023/08/14 16:34:34;;;;;;;2.53;2.33;;;29.20;98.50;;;;;;4975546;28;20234;-64
2023/08/14 16:37:00;;;;;;;2.43;2.30;;;29.20;98.70;;;;;;4975735;28;20172;-62
2023/08/14 16:39:25;;;;;;;3.70;3.40;;;29.20;98.70;;;;;;4975781;28;20210;-63
2023/08/14 16:41:51;;;;;;;2.73;2.53;;;29.20;98.70;;;;;;4975817;28;20310;-62
2023/08/14 16:44:16;;;;;;;2.53;2.33;;;29.20;98.90;;;;;;4975456;28;20176;-62
2023/08/14 16:46:42;;;;;;;2.70;2.50;;;29.20;99.10;;;;;;4975869;28;20179;-62
2023/08/14 16:49:08;;;;;;;3.47;3.17;;;29.20;99.00;;;;;;4975538;28;20176;-61